Time;durP1;ratioP1;P1;durP2;ratioP2;P2;SDS_P1;SDS_P2;PMS_P1;PMS_P2;Temp;Humidity;BMP_temperature;BMP_pressure;BME280_temperature;BME280_humidity;BME280_pressure;Samples;Min_cycle;Max_cycle;Signal;HPM_P1;HPM_P2
2024/01/27 00:04:35;;;;;;;6.70;3.63;;;7.20;99.90;;;5.59;100.00;100506.91;10499092;27;96633;-85
2024/01/27 00:09:38;;;;;;;6.33;3.40;;;7.10;99.90;;;5.55;100.00;100537.09;10489409;27;96548;-85
2024/01/27 00:14:43;;;;;;;5.93;3.33;;;7.10;99.90;;;5.62;100.00;100562.00;10506931;27;96486;-85
2024/01/27 00:19:47;;;;;;;8.83;4.10;;;7.20;99.90;;;5.69;100.00;100578.13;10488167;27;97204;-85
2024/01/27 00:24:50;;;;;;;5.90;2.93;;;7.20;99.90;;;5.71;100.00;100593.84;10506448;27;96554;-85
2024/01/27 00:29:54;;;;;;;4.53;2.30;;;7.30;99.90;;;5.72;100.00;100613.97;10510399;27;96563;-85
2024/01/27 00:34:58;;;;;;;5.47;2.50;;;7.30;99.90;;;5.69;100.00;100611.59;10491105;27;96552;-85
2024/01/27 00:40:03;;;;;;;3.57;2.00;;;7.30;99.90;;;5.60;100.00;100619.28;10489088;27;96506;-85
2024/01/27 00:45:07;;;;;;;4.00;1.80;;;7.20;99.90;;;5.55;100.00;100632.00;10505616;27;96576;-85
2024/01/27 00:50:11;;;;;;;4.60;1.90;;;7.10;99.90;;;5.56;100.00;100643.38;10505245;27;96765;-84
2024/01/27 00:55:15;;;;;;;3.33;1.40;;;7.10;99.90;;;5.58;100.00;100659.94;10504129;27;96512;-85
2024/01/27 01:00:18;;;;;;;2.47;1.23;;;7.10;99.90;;;5.57;100.00;100663.50;10504186;27;97085;-85
2024/01/27 01:05:22;;;;;;;1.67;1.03;;;7.10;99.90;;;5.50;100.00;100663.16;10504189;27;96699;-84
2024/01/27 01:10:26;;;;;;;3.57;0.93;;;7.10;99.90;;;5.51;100.00;100667.47;10504228;27;96496;-84
2024/01/27 01:15:29;;;;;;;1.97;0.73;;;7.10;99.90;;;5.55;100.00;100671.56;10502924;27;96564;-84
2024/01/27 01:20:33;;;;;;;3.63;1.20;;;7.10;99.90;;;5.51;100.00;100688.56;10504900;27;96445;-84
2024/01/27 01:25:37;;;;;;;2.20;1.00;;;7.10;99.90;;;5.51;100.00;100666.66;10503759;27;96491;-84
2024/01/27 01:30:41;;;;;;;1.27;0.70;;;7.10;99.90;;;5.44;100.00;100657.56;10506593;27;97025;-84
2024/01/27 01:35:45;;;;;;;1.57;0.90;;;7.10;99.90;;;5.38;100.00;100646.53;10510199;27;96525;-84
2024/01/27 01:40:49;;;;;;;1.87;0.97;;;7.00;99.90;;;5.29;100.00;100654.38;10511374;27;96640;-83
2024/01/27 01:45:53;;;;;;;2.10;1.00;;;6.90;99.90;;;5.22;100.00;100676.91;10494071;27;98178;-83
2024/01/27 01:50:59;;;;;;;1.57;0.70;;;6.80;99.90;;;5.23;100.00;100684.69;10512013;27;97750;-84
2024/01/27 01:56:04;;;;;;;1.80;0.87;;;6.80;99.90;;;5.22;100.00;100685.66;10476339;27;96837;-84
2024/01/27 02:01:09;;;;;;;1.10;0.77;;;6.80;99.90;;;5.19;100.00;100688.50;10485742;27;97830;-83
2024/01/27 02:06:13;;;;;;;0.97;0.50;;;6.80;99.90;;;5.21;97.65;100696.28;10489343;27;96848;-84
2024/01/27 02:11:18;;;;;;;2.00;0.60;;;6.80;99.90;;;5.18;95.42;100691.28;10510441;27;96451;-84
2024/01/27 02:16:21;;;;;;;0.63;0.30;;;6.80;99.90;;;5.15;94.45;100686.22;10509477;27;96558;-84
2024/01/27 02:21:25;;;;;;;1.07;0.37;;;6.80;99.90;;;5.08;92.68;100660.38;10510205;27;96502;-84
2024/01/27 02:26:28;;;;;;;4.37;0.80;;;6.70;99.90;;;5.02;91.48;100662.66;10509071;27;96603;-84
2024/01/27 02:31:32;;;;;;;1.57;0.47;;;6.60;99.90;;;5.00;89.61;100646.97;10509239;27;97732;-84
2024/01/27 02:36:35;;;;;;;1.47;0.27;;;6.60;99.90;;;4.95;88.36;100649.13;10476144;27;96472;-83
2024/01/27 02:41:39;;;;;;;0.30;0.20;;;6.60;99.90;;;4.97;84.62;100665.66;10529985;27;96567;-85
2024/01/27 02:46:44;;;;;;;1.13;0.20;;;6.60;99.90;;;5.05;81.36;100659.78;10533003;27;96466;-83
2024/01/27 02:51:47;;;;;;;1.10;0.37;;;6.60;99.90;;;5.05;79.75;100678.22;10508174;27;96582;-83
2024/01/27 02:56:52;;;;;;;2.17;0.40;;;6.70;99.90;;;5.01;79.03;100716.31;10508263;27;97627;-83
2024/01/27 03:01:55;;;;;;;0.30;0.20;;;6.60;99.90;;;5.01;77.15;100714.50;10490355;27;96445;-82
2024/01/27 03:06:58;;;;;;;0.30;0.20;;;6.60;99.80;;;4.94;76.98;100723.84;10507090;27;96541;-82
2024/01/27 03:12:02;;;;;;;0.63;0.23;;;6.60;99.70;;;4.91;76.07;100734.59;10508060;27;97585;-83
2024/01/27 03:17:07;;;;;;;0.90;0.30;;;6.50;99.20;;;4.89;75.29;100751.50;10508972;27;96509;-82
2024/01/27 03:22:10;;;;;;;0.67;0.17;;;6.50;98.90;;;4.84;75.84;100754.47;10506748;27;96559;-82
2024/01/27 03:27:14;;;;;;;1.47;0.20;;;6.50;99.10;;;4.85;76.85;100779.84;10508565;27;96418;-83
2024/01/27 03:32:17;;;;;;;0.40;0.20;;;6.40;99.20;;;4.85;76.94;100785.09;10524666;27;96466;-82
2024/01/27 03:37:22;;;;;;;0.97;0.30;;;6.40;99.20;;;4.84;77.89;100791.34;10472714;27;96565;-83
2024/01/27 03:42:26;;;;;;;1.37;0.40;;;6.40;99.60;;;4.70;78.75;100791.53;10505352;27;96479;-83
2024/01/27 03:47:30;;;;;;;1.93;0.47;;;6.40;99.70;;;4.65;79.97;100809.47;10507249;27;96583;-83
2024/01/27 03:52:34;;;;;;;3.97;0.63;;;6.30;99.90;;;4.57;81.85;100834.59;10489640;27;96642;-83
2024/01/27 03:57:38;;;;;;;1.23;0.30;;;6.20;99.90;;;4.49;82.43;100826.41;10488206;27;96560;-83
2024/01/27 04:02:42;;;;;;;0.70;0.20;;;6.10;99.90;;;4.42;82.81;100850.66;10510481;27;97505;-83
2024/01/27 04:07:45;;;;;;;1.00;0.20;;;6.00;99.90;;;4.37;82.01;100869.41;10508786;27;96562;-83
2024/01/27 04:12:49;;;;;;;0.30;0.30;;;6.00;99.90;;;4.31;80.77;100869.84;10489037;27;96493;-83
2024/01/27 04:17:54;;;;;;;0.50;0.20;;;5.90;99.90;;;4.28;78.41;100865.66;10506547;27;98260;-83
2024/01/27 04:22:58;;;;;;;0.33;0.20;;;5.90;99.30;;;4.27;77.84;100884.19;10504869;27;96579;-83
2024/01/27 04:28:01;;;;;;;0.53;0.10;;;5.90;99.30;;;4.30;76.49;100907.66;10505698;27;96499;-83
2024/01/27 04:33:07;;;;;;;0.73;0.30;;;5.90;98.90;;;4.26;77.60;100904.41;10504456;27;96484;-83
2024/01/27 04:38:11;;;;;;;2.33;0.23;;;5.90;99.10;;;4.19;79.11;100918.94;10504437;27;96567;-84
2024/01/27 04:43:16;;;;;;;0.93;0.30;;;5.80;99.50;;;4.14;80.97;100933.34;10487504;27;96422;-82
2024/01/27 04:48:21;;;;;;;0.53;0.40;;;5.80;99.90;;;4.06;82.93;100941.78;10496220;27;96557;-83
2024/01/27 04:53:25;;;;;;;3.17;0.97;;;5.70;99.90;;;3.99;84.76;100951.91;10505488;27;96673;-82
2024/01/27 04:58:28;;;;;;;5.27;3.20;;;5.60;99.90;;;3.86;86.12;100950.25;10505553;27;96822;-82
2024/01/27 05:03:31;;;;;;;1.07;0.77;;;5.50;99.90;;;3.79;85.59;100973.50;10503863;27;96575;-83
2024/01/27 05:08:35;;;;;;;2.80;0.57;;;5.50;99.90;;;3.77;83.32;100970.09;10480315;27;96608;-83
2024/01/27 05:13:40;;;;;;;1.83;0.80;;;5.40;99.90;;;3.77;82.04;100964.84;10504564;27;96619;-83
2024/01/27 05:18:44;;;;;;;2.73;0.60;;;5.40;99.90;;;3.77;80.16;100959.59;10512546;27;96581;-83
2024/01/27 05:23:48;;;;;;;2.23;0.40;;;5.40;99.70;;;3.80;79.20;100964.66;10503378;27;96444;-82
2024/01/27 05:28:52;;;;;;;2.63;0.40;;;5.40;99.50;;;3.75;78.38;100959.72;10504529;27;96690;-82
2024/01/27 05:33:56;;;;;;;1.10;0.60;;;5.40;99.20;;;3.76;77.00;100974.53;10481422;27;96487;-82
2024/01/27 05:39:00;;;;;;;1.00;0.50;;;5.40;98.90;;;3.84;74.57;100984.53;10502473;27;96607;-82
2024/01/27 05:44:03;;;;;;;3.30;0.60;;;5.40;98.00;;;3.88;73.17;101003.56;10504778;27;96427;-82
2024/01/27 05:49:07;;;;;;;5.20;0.60;;;5.50;97.50;;;3.90;72.08;101027.94;10522445;27;96802;-82
2024/01/27 05:54:14;;;;;;;5.77;0.60;;;5.50;97.30;;;3.92;70.14;101023.44;10525102;27;96542;-83
2024/01/27 05:59:18;;;;;;;1.30;0.70;;;5.50;96.50;;;3.93;68.85;101020.72;10505617;27;96498;-82
2024/01/27 06:04:21;;;;;;;2.20;0.50;;;5.50;95.90;;;3.92;67.51;101050.59;10497071;27;96769;-83
2024/01/27 06:09:25;;;;;;;2.67;0.70;;;5.50;95.30;;;3.89;66.73;101052.56;10503343;27;96476;-83
2024/01/27 06:14:28;;;;;;;3.87;0.70;;;5.50;95.00;;;3.89;66.43;101058.66;10501533;27;96614;-83
2024/01/27 06:19:32;;;;;;;3.17;1.07;;;5.50;94.80;;;3.86;65.72;101085.19;10507543;27;97518;-83
2024/01/27 06:24:43;;;;;;;1.07;0.40;;;5.50;94.70;;;3.88;66.32;101078.03;10498631;27;96783;-84
2024/01/27 06:29:47;;;;;;;4.40;1.80;;;5.50;94.70;;;3.84;66.78;101115.13;10510141;27;97839;-84
2024/01/27 06:34:50;;;;;;;6.00;1.77;;;5.50;94.90;;;3.86;67.46;101110.63;10491820;27;96596;-83
2024/01/27 06:39:54;;;;;;;7.13;2.03;;;5.50;95.30;;;3.81;67.50;101082.00;10501125;27;97278;-83
2024/01/27 06:44:58;;;;;;;4.20;1.63;;;5.50;95.00;;;3.82;68.32;101096.84;10492231;27;96911;-83
2024/01/27 06:50:01;;;;;;;0.93;0.30;;;5.50;95.30;;;3.84;68.41;101091.47;10508733;27;96626;-82
2024/01/27 06:55:06;;;;;;;3.30;0.50;;;5.50;95.20;;;3.86;67.58;101100.97;10508592;27;96597;-83
2024/01/27 07:00:14;;;;;;;2.20;0.40;;;5.50;95.10;;;3.92;66.08;101099.72;10507957;27;96470;-84
2024/01/27 07:05:19;;;;;;;4.57;0.67;;;5.50;94.30;;;4.00;64.93;101100.88;10490925;27;96736;-83
2024/01/27 07:10:22;;;;;;;7.40;1.83;;;5.60;93.80;;;4.30;64.26;101131.28;10489851;27;96502;-84
2024/01/27 07:15:27;;;;;;;4.47;0.90;;;5.70;93.70;;;4.96;62.76;101166.22;10491312;27;96650;-84
2024/01/27 07:20:31;;;;;;;2.93;1.07;;;5.90;93.90;;;5.39;62.04;101153.44;10506688;27;96537;-81
2024/01/27 07:25:34;;;;;;;1.23;0.40;;;6.10;94.20;;;5.68;61.20;101153.97;10506382;27;96628;-84
2024/01/27 07:30:38;;;;;;;4.50;1.00;;;6.30;94.00;;;5.89;59.79;101155.03;10488666;27;97934;-83
2024/01/27 07:35:42;;;;;;;4.90;1.00;;;6.50;94.00;;;6.18;59.33;101152.03;10507671;27;96494;-83
2024/01/27 07:40:45;;;;;;;2.47;0.60;;;6.70;94.10;;;6.40;56.83;101145.94;10507764;27;96463;-86
2024/01/27 07:45:48;;;;;;;2.30;0.70;;;6.90;92.70;;;6.55;56.88;101165.88;10509669;27;96822;-83
2024/01/27 07:50:52;;;;;;;2.47;0.83;;;7.00;92.50;;;6.78;57.72;101163.25;10490904;27;96774;-83
2024/01/27 07:55:56;;;;;;;1.80;0.80;;;7.20;92.80;;;7.07;57.40;101164.44;10498752;27;96441;-84
2024/01/27 08:01:00;;;;;;;3.07;0.90;;;7.30;93.00;;;7.06;56.95;101168.03;10505871;27;96580;-84
2024/01/27 08:06:09;;;;;;;3.47;1.17;;;7.40;92.80;;;6.94;58.79;101175.13;10473845;27;96743;-84
2024/01/27 08:11:14;;;;;;;4.13;0.70;;;7.60;93.50;;;7.23;59.16;101193.16;10506715;27;96453;-84
2024/01/27 08:16:18;;;;;;;10.03;2.90;;;7.80;93.70;;;7.18;57.20;101201.44;10492860;27;97940;-84
2024/01/27 08:21:21;;;;;;;8.10;1.60;;;7.90;92.60;;;6.73;59.09;101190.03;10498063;27;96550;-84
2024/01/27 08:26:26;;;;;;;2.40;1.30;;;7.60;92.80;;;6.37;59.97;101199.81;10488219;27;96511;-83
2024/01/27 08:31:29;;;;;;;3.17;0.63;;;7.40;92.70;;;5.89;61.31;101215.69;10502726;27;96510;-83
2024/01/27 08:36:34;;;;;;;3.73;1.50;;;7.10;92.80;;;5.44;62.96;101219.84;10485326;27;96486;-84
2024/01/27 08:41:38;;;;;;;2.63;1.03;;;6.90;93.20;;;5.26;65.25;101245.72;10470298;27;97872;-83
2024/01/27 08:46:41;;;;;;;4.43;1.27;;;6.70;93.70;;;5.02;66.34;101250.91;10477498;27;96528;-83
2024/01/27 08:51:45;;;;;;;3.00;1.00;;;6.50;93.90;;;4.87;67.65;101252.00;10486322;27;96565;-83
2024/01/27 08:56:48;;;;;;;3.60;0.77;;;6.50;94.30;;;4.80;68.73;101269.16;10486440;27;96528;-83
2024/01/27 09:01:52;;;;;;;2.43;1.00;;;6.40;94.60;;;4.98;69.59;101256.53;10481243;27;97699;-83
2024/01/27 09:06:55;;;;;;;5.07;1.43;;;6.50;95.10;;;5.38;68.40;101262.47;10428986;27;96650;-84
2024/01/27 09:11:59;;;;;;;5.03;1.70;;;6.70;94.90;;;5.56;66.84;101274.34;10418833;27;96991;-83
2024/01/27 09:17:03;;;;;;;2.13;0.63;;;6.90;94.40;;;5.46;66.43;101270.69;10434548;27;96709;-83
2024/01/27 09:22:06;;;;;;;1.40;0.60;;;6.90;94.20;;;5.45;66.66;101278.69;10451609;27;96512;-83
2024/01/27 09:27:09;;;;;;;1.43;0.70;;;6.90;94.40;;;5.63;67.05;101294.03;10451357;27;97726;-83
2024/01/27 09:32:13;;;;;;;1.53;0.43;;;7.10;94.50;;;5.78;65.05;101291.28;10440296;27;97615;-84
2024/01/27 09:37:16;;;;;;;2.13;0.77;;;7.30;94.10;;;6.01;64.10;101285.22;10453710;27;96464;-83
2024/01/27 09:42:21;;;;;;;8.77;3.30;;;7.40;93.70;;;6.25;62.64;101279.94;10460635;27;96515;-83
2024/01/27 09:47:25;;;;;;;6.07;2.00;;;7.60;93.30;;;6.35;62.11;101282.72;10474506;27;96702;-83
2024/01/27 09:52:28;;;;;;;7.63;2.67;;;7.80;93.30;;;6.30;61.67;101283.09;10456114;27;96857;-83
2024/01/27 09:57:32;;;;;;;6.10;1.73;;;7.80;93.00;;;6.25;61.34;101289.66;10454344;27;96573;-83
2024/01/27 10:02:40;;;;;;;6.67;2.10;;;7.80;92.30;;;6.13;60.71;101296.69;10454032;27;96657;-83
2024/01/27 10:07:43;;;;;;;12.40;3.90;;;7.70;91.90;;;5.98;60.95;101284.59;10507705;27;96757;-83
2024/01/27 10:12:52;;;;;;;4.43;1.87;;;7.50;91.70;;;5.92;61.39;101277.13;10492866;27;98410;-83
2024/01/27 10:18:07;;;;;;;5.00;0.97;;;7.40;92.30;;;5.81;60.61;101285.78;10494696;27;96538;-83
2024/01/27 10:23:12;;;;;;;4.47;1.30;;;7.40;91.20;;;5.71;60.49;101267.16;10511752;27;96630;-83
2024/01/27 10:28:16;;;;;;;1.93;0.70;;;7.20;91.10;;;5.92;60.41;101256.84;10507544;27;96554;-83
2024/01/27 10:33:21;;;;;;;3.97;0.90;;;7.40;91.60;;;6.13;59.21;101236.81;10509340;27;96533;-83
2024/01/27 10:38:37;;;;;;;3.40;1.17;;;7.60;90.70;;;6.66;57.12;101221.38;10512839;27;96393;-83
2024/01/27 10:43:41;;;;;;;1.53;0.70;;;8.20;89.50;;;6.99;54.62;101217.06;10490845;27;96507;-84
2024/01/27 10:48:49;;;;;;;2.47;0.77;;;8.50;87.20;;;7.26;52.70;101206.13;10504859;27;96560;-83
2024/01/27 10:54:00;;;;;;;3.20;1.00;;;8.80;84.10;;;7.69;51.90;101206.16;10500370;27;96567;-85
2024/01/27 10:59:05;;;;;;;2.38;0.77;;;9.20;84.10;;;7.70;49.99;101231.66;10499801;27;96652;-85
2024/01/27 11:04:13;;;;;;;3.23;0.73;;;9.30;80.70;;;7.48;50.61;101186.72;10489430;27;96517;-86
2024/01/27 11:09:21;;;;;;;1.40;0.50;;;9.00;80.70;;;7.18;51.65;101222.59;10510665;27;96453;-84
2024/01/27 11:14:25;;;;;;;4.83;0.80;;;8.70;81.30;;;7.04;52.34;101208.78;10507461;27;96503;-83
2024/01/27 11:19:30;;;;;;;3.90;0.73;;;8.60;82.10;;;6.95;52.26;101190.03;10490090;27;96818;-84
2024/01/27 11:24:33;;;;;;;5.83;0.87;;;8.60;81.60;;;6.89;52.84;101190.50;10490521;27;96776;-84
2024/01/27 11:29:48;;;;;;;2.30;0.90;;;8.50;81.90;;;7.05;53.10;101205.19;10502128;27;97404;-84
2024/01/27 11:34:52;;;;;;;5.37;0.90;;;8.60;82.10;;;6.89;52.26;101214.28;10507986;27;96591;-84
2024/01/27 11:40:07;;;;;;;4.67;1.13;;;8.50;81.00;;;6.68;53.01;101202.75;10508053;27;96452;-84
2024/01/27 11:45:11;;;;;;;3.67;0.80;;;8.20;81.70;;;6.62;53.79;101225.19;10489844;27;96499;-84
2024/01/27 11:50:20;;;;;;;2.33;0.67;;;8.10;82.50;;;6.53;54.79;101247.00;10506421;27;96493;-84
2024/01/27 11:55:23;;;;;;;3.03;0.63;;;8.00;83.80;;;6.40;55.01;101236.53;10490696;27;96775;-85
2024/01/27 12:00:27;;;;;;;2.13;0.53;;;7.90;84.00;;;6.57;55.23;101240.53;10493369;27;97422;-86
2024/01/27 12:05:31;;;;;;;1.73;0.53;;;8.00;84.40;;;6.69;54.71;101251.97;10507549;27;96497;-85
2024/01/27 12:10:36;;;;;;;2.53;0.50;;;8.20;83.60;;;6.70;54.06;101243.94;10502347;27;96442;-86
2024/01/27 12:15:39;;;;;;;3.57;1.03;;;8.30;82.60;;;6.81;54.89;101252.84;10488080;27;96523;-87
2024/01/27 12:20:43;;;;;;;2.97;0.83;;;8.30;83.40;;;6.89;54.08;101253.09;10506574;27;96466;-89
2024/01/27 12:25:54;;;;;;;3.80;0.67;;;8.50;82.90;;;6.74;54.24;101267.47;10505498;27;96649;-90
2024/01/27 12:30:58;;;;;;;4.80;0.98;;;8.30;82.20;;;6.42;55.05;101260.19;10496098;27;97265;-88
2024/01/27 12:36:01;;;;;;;1.83;0.43;;;8.10;83.10;;;6.23;55.49;101267.78;10506530;27;96784;-88
2024/01/27 12:41:05;;;;;;;3.87;1.00;;;7.80;83.70;;;6.06;56.82;101254.06;10505781;27;96681;-88
2024/01/27 12:46:08;;;;;;;4.47;0.77;;;7.70;84.70;;;5.95;56.61;101250.53;10506228;27;96779;-88
2024/01/27 12:51:13;;;;;;;3.70;0.90;;;7.60;84.80;;;5.86;57.37;101250.19;10505829;27;96449;-87
2024/01/27 12:56:18;;;;;;;3.30;1.17;;;7.50;85.40;;;5.82;58.39;101235.56;10505016;27;96540;-86
2024/01/27 13:01:22;;;;;;;2.27;0.60;;;7.40;86.30;;;5.88;58.88;101229.00;10494032;27;96452;-87
2024/01/27 13:06:27;;;;;;;3.67;0.70;;;7.50;86.70;;;5.86;59.16;101209.78;10504524;27;96525;-86
2024/01/27 13:11:30;;;;;;;4.00;0.67;;;7.50;87.60;;;5.74;58.67;101200.13;10478173;27;97790;-87
2024/01/27 13:16:34;;;;;;;4.20;0.87;;;7.40;86.50;;;5.63;59.96;101203.56;10490045;27;96875;-87
2024/01/27 13:21:40;;;;;;;4.37;0.77;;;7.30;87.70;;;5.57;60.48;101196.94;10507521;27;97871;-90
2024/01/27 13:26:43;;;;;;;3.57;0.80;;;7.20;88.00;;;5.56;60.53;101204.94;10495137;27;96633;-90
2024/01/27 13:31:47;;;;;;;4.60;1.40;;;7.20;88.40;;;5.51;60.44;101202.63;10490202;27;96525;-90
2024/01/27 13:36:50;;;;;;;5.40;1.57;;;7.10;88.20;;;5.45;60.58;101200.44;10499090;27;97840;-89
2024/01/27 13:41:54;;;;;;;4.37;1.60;;;7.10;88.20;;;5.49;61.26;101196.66;10511500;27;96801;-88
2024/01/27 13:47:00;;;;;;;4.67;1.50;;;7.10;88.70;;;5.55;60.98;101198.84;10506894;27;97651;-88
2024/01/27 13:52:04;;;;;;;4.53;1.40;;;7.10;88.80;;;5.62;61.12;101207.16;10522440;27;96597;-88
2024/01/27 13:57:10;;;;;;;7.43;2.13;;;7.20;88.90;;;5.61;61.11;101211.59;10512634;27;96894;-88
2024/01/27 14:02:16;;;;;;;4.83;1.20;;;7.20;88.70;;;5.45;61.18;101182.00;10520652;27;96518;-88
2024/01/27 14:07:20;;;;;;;3.00;0.87;;;7.10;88.80;;;5.35;61.78;101223.16;10510104;27;96624;-88
2024/01/27 14:12:24;;;;;;;3.90;1.00;;;7.00;89.30;;;5.26;62.41;101213.25;10502299;27;96529;-88
2024/01/27 14:17:27;;;;;;;2.33;0.70;;;6.80;89.90;;;5.21;62.75;101228.56;10501645;27;97674;-86
2024/01/27 14:22:31;;;;;;;6.40;1.17;;;6.80;90.00;;;5.13;62.85;101237.00;10510483;27;96444;-86
2024/01/27 14:27:35;;;;;;;4.87;0.80;;;6.70;90.10;;;5.07;64.31;101229.53;10523036;27;96804;-88
2024/01/27 14:32:38;;;;;;;3.27;0.80;;;6.70;90.60;;;4.97;65.11;101231.94;10507426;27;96489;-88
2024/01/27 14:37:42;;;;;;;2.97;1.07;;;6.60;91.10;;;4.85;65.85;101211.72;10475293;27;97739;-87
2024/01/27 14:42:46;;;;;;;4.00;1.27;;;6.50;91.10;;;4.79;65.67;101196.34;10489895;27;96533;-88
2024/01/27 14:47:50;;;;;;;6.23;1.10;;;6.40;91.30;;;4.74;65.53;101203.75;10500740;27;96458;-87
2024/01/27 14:52:58;;;;;;;4.37;1.27;;;6.40;91.00;;;4.72;64.63;101205.63;10492717;27;97890;-89
2024/01/27 14:58:03;;;;;;;3.73;1.73;;;6.30;90.70;;;4.70;65.11;101183.84;10526346;27;96510;-90
2024/01/27 15:03:07;;;;;;;3.63;1.20;;;6.30;90.90;;;4.72;64.95;101184.56;10517124;27;96458;-88
2024/01/27 15:08:10;;;;;;;5.77;1.50;;;6.30;90.80;;;4.67;65.08;101176.16;10533585;27;96437;-88
2024/01/27 15:13:16;;;;;;;5.40;1.63;;;6.30;91.00;;;4.64;65.29;101171.09;10518447;27;96606;-87
2024/01/27 15:18:21;;;;;;;7.57;2.27;;;6.20;91.00;;;4.61;65.77;101187.94;10509336;27;96603;-87
2024/01/27 15:23:27;;;;;;;5.50;1.60;;;6.20;91.20;;;4.62;66.09;101196.66;10490930;27;96802;-86
2024/01/27 15:28:31;;;;;;;7.57;2.67;;;6.20;91.30;;;4.57;66.45;101195.22;10507972;27;96581;-87
2024/01/27 15:33:34;;;;;;;4.87;1.20;;;6.20;91.40;;;4.57;66.44;101203.13;10506222;27;96541;-87
2024/01/27 15:38:38;;;;;;;6.27;1.53;;;6.20;91.40;;;4.60;66.49;101214.38;10510560;27;96607;-87
2024/01/27 15:43:46;;;;;;;8.73;1.43;;;6.20;91.70;;;4.56;66.81;101205.88;10506200;27;96689;-87
2024/01/27 15:48:50;;;;;;;4.90;1.60;;;6.20;91.60;;;4.53;67.26;101214.78;10507936;27;96401;-88
2024/01/27 15:53:54;;;;;;;7.10;1.77;;;6.10;91.70;;;4.52;67.40;101228.06;10490066;27;96452;-86
2024/01/27 15:58:57;;;;;;;6.60;1.73;;;6.10;91.70;;;4.53;67.48;101253.44;10505274;27;97218;-87
2024/01/27 16:04:04;;;;;;;5.20;1.93;;;6.10;91.80;;;4.51;67.17;101260.59;10500954;27;96514;-88
2024/01/27 16:09:08;;;;;;;6.20;1.63;;;6.10;91.70;;;4.53;67.08;101264.81;10489575;27;97387;-87
2024/01/27 16:14:13;;;;;;;4.73;1.53;;;6.10;91.70;;;4.54;66.94;101269.13;10496079;27;96491;-87
2024/01/27 16:19:16;;;;;;;5.27;1.50;;;6.10;91.60;;;4.54;66.54;101270.91;10529971;27;96661;-88
2024/01/27 16:24:20;;;;;;;5.47;2.07;;;6.10;91.70;;;4.51;66.71;101277.25;10501775;27;96657;-87
2024/01/27 16:29:23;;;;;;;6.17;1.90;;;6.10;91.50;;;4.53;65.94;101277.97;10488151;27;96440;-87
2024/01/27 16:34:27;;;;;;;6.00;1.63;;;6.10;91.40;;;4.53;65.88;101299.03;10525252;27;96540;-87
2024/01/27 16:39:30;;;;;;;6.03;1.30;;;6.10;91.30;;;4.53;65.89;101282.41;10527491;27;96536;-87
2024/01/27 16:44:34;;;;;;;8.57;1.80;;;6.10;91.20;;;4.54;65.23;101277.03;10514871;27;96520;-87
2024/01/27 16:49:37;;;;;;;7.20;1.97;;;6.10;91.00;;;4.59;64.70;101260.06;10505388;27;96922;-88
2024/01/27 16:54:41;;;;;;;8.20;1.63;;;6.20;91.10;;;4.57;65.37;101261.03;10491455;27;96817;-87
2024/01/27 16:59:45;;;;;;;3.83;1.80;;;6.20;91.10;;;4.59;64.73;101270.59;10486182;27;96482;-87
2024/01/27 17:04:49;;;;;;;9.13;2.27;;;6.20;90.80;;;4.64;64.04;101271.16;10501560;27;96646;-87
2024/01/27 17:09:53;;;;;;;6.23;1.40;;;6.20;90.70;;;4.65;63.82;101272.84;10488697;27;96449;-87
2024/01/27 17:14:56;;;;;;;4.37;1.00;;;6.20;90.60;;;4.67;63.98;101320.94;10471375;27;96525;-87
2024/01/27 17:20:00;;;;;;;3.57;1.30;;;6.20;90.50;;;4.65;64.24;101357.94;10504536;27;96496;-86
2024/01/27 17:25:04;;;;;;;2.83;1.20;;;6.30;90.60;;;4.59;64.30;101357.50;10487160;27;96601;-87
2024/01/27 17:30:08;;;;;;;3.77;1.20;;;6.20;90.60;;;4.54;64.81;101369.16;10519537;27;96554;-86
2024/01/27 17:35:13;;;;;;;3.33;1.03;;;6.10;90.80;;;4.46;65.28;101373.25;10547584;27;96432;-86
2024/01/27 17:40:16;;;;;;;4.67;1.63;;;6.10;91.00;;;4.44;65.92;101354.94;10529180;27;96489;-86
2024/01/27 17:45:21;;;;;;;6.80;2.30;;;6.00;91.20;;;4.34;66.94;101371.41;10502877;27;96724;-86
2024/01/27 17:50:24;;;;;;;11.07;2.87;;;6.00;91.50;;;4.21;67.93;101395.03;10505215;27;96479;-86
2024/01/27 17:55:28;;;;;;;11.30;2.30;;;5.90;91.90;;;4.12;69.04;101390.34;10486093;27;96536;-86
2024/01/27 18:00:31;;;;;;;6.97;1.60;;;5.80;92.20;;;4.05;69.61;101416.19;10506370;27;96447;-86
2024/01/27 18:05:35;;;;;;;10.40;3.03;;;5.70;92.40;;;3.99;70.25;101417.41;10502146;27;96581;-85
2024/01/27 18:10:38;;;;;;;8.17;1.90;;;5.60;92.80;;;3.89;71.24;101395.25;10503898;27;96534;-86
2024/01/27 18:15:41;;;;;;;8.90;2.60;;;5.50;92.90;;;3.87;71.71;101401.56;10490643;27;96444;-85
2024/01/27 18:20:45;;;;;;;7.10;1.97;;;5.50;93.10;;;3.86;71.82;101434.91;10510683;27;96507;-86
2024/01/27 18:25:49;;;;;;;6.40;1.87;;;5.50;93.40;;;3.81;72.09;101455.38;10515170;27;96730;-85
2024/01/27 18:30:52;;;;;;;5.73;1.40;;;5.50;93.30;;;3.78;72.40;101429.28;10513419;27;97712;-86
2024/01/27 18:35:56;;;;;;;8.20;1.87;;;5.40;93.30;;;3.75;72.40;101445.22;10500710;27;96330;-86
2024/01/27 18:40:59;;;;;;;2.70;1.10;;;5.40;93.30;;;3.72;72.86;101441.03;10502828;27;96684;-86
2024/01/27 18:46:03;;;;;;;6.43;1.97;;;5.30;93.40;;;3.73;72.72;101465.53;10490154;27;96957;-85
2024/01/27 18:51:07;;;;;;;7.67;1.90;;;5.30;93.50;;;3.72;72.66;101477.00;10511094;27;96772;-86
2024/01/27 18:56:13;;;;;;;5.97;1.53;;;5.40;93.40;;;3.71;72.48;101483.16;10507996;27;96465;-85
2024/01/27 19:01:17;;;;;;;6.43;1.63;;;5.30;93.30;;;3.71;72.21;101501.56;10510389;27;97620;-85
2024/01/27 19:06:21;;;;;;;6.63;1.63;;;5.30;93.30;;;3.64;72.66;101506.34;10492420;27;96585;-86
2024/01/27 19:11:24;;;;;;;7.13;1.80;;;5.30;93.40;;;3.63;72.74;101512.53;10507341;27;96489;-86
2024/01/27 19:16:27;;;;;;;4.93;1.37;;;5.30;93.50;;;3.62;72.78;101512.63;10506817;27;97518;-87
2024/01/27 19:21:31;;;;;;;4.43;1.00;;;5.30;93.50;;;3.63;72.78;101519.59;10489682;27;96600;-86
2024/01/27 19:26:35;;;;;;;5.70;1.43;;;5.20;93.50;;;3.60;73.19;101525.00;10497682;27;98638;-86
2024/01/27 19:31:39;;;;;;;4.63;1.30;;;5.20;93.60;;;3.59;73.31;101518.06;10487172;27;97143;-86
2024/01/27 19:36:42;;;;;;;4.93;1.47;;;5.20;93.70;;;3.56;73.49;101526.16;10508532;27;97610;-87
2024/01/27 19:41:46;;;;;;;6.33;1.77;;;5.20;93.80;;;3.53;74.02;101540.28;10505627;27;97159;-86
2024/01/27 19:46:50;;;;;;;7.90;1.50;;;5.20;93.80;;;3.54;73.93;101546.41;10497858;27;96661;-86
2024/01/27 19:51:53;;;;;;;3.43;1.30;;;5.20;93.90;;;3.53;74.43;101557.84;10490024;27;96402;-86
2024/01/27 19:56:56;;;;;;;2.30;1.13;;;5.20;94.00;;;3.46;74.68;101545.06;10472260;27;96412;-87
2024/01/27 20:02:00;;;;;;;5.37;1.23;;;5.10;94.10;;;3.47;74.95;101553.78;10497284;27;96562;-87
2024/01/27 20:07:04;;;;;;;7.97;1.50;;;5.10;94.20;;;3.46;75.21;101571.34;10503823;27;96660;-87
2024/01/27 20:12:08;;;;;;;4.70;1.60;;;5.10;94.30;;;3.46;75.03;101581.84;10487215;27;98238;-87
2024/01/27 20:17:11;;;;;;;6.60;1.50;;;5.10;94.40;;;3.44;75.50;101582.91;10488089;27;96761;-87
2024/01/27 20:22:15;;;;;;;3.47;1.57;;;5.10;94.50;;;3.38;75.93;101583.25;10505444;27;96632;-86
2024/01/27 20:27:18;;;;;;;5.30;1.97;;;5.00;94.50;;;3.37;76.27;101577.16;10512113;27;99753;-86
2024/01/27 20:32:22;;;;;;;4.23;1.90;;;5.00;94.60;;;3.35;76.45;101584.25;10487662;27;96668;-87
2024/01/27 20:37:26;;;;;;;5.30;1.33;;;5.00;94.80;;;3.34;77.03;101600.13;10523947;27;96553;-87
2024/01/27 20:42:29;;;;;;;3.67;1.43;;;5.00;94.90;;;3.33;77.34;101604.53;10516456;27;96599;-87
2024/01/27 20:47:33;;;;;;;7.30;1.70;;;5.00;95.00;;;3.37;77.67;101602.56;10486394;27;96954;-87
2024/01/27 20:52:36;;;;;;;5.93;1.73;;;5.00;95.10;;;3.35;77.87;101599.16;10480235;27;96540;-87
2024/01/27 20:57:49;;;;;;;5.70;1.93;;;5.00;95.10;;;3.27;78.17;101601.41;10498696;27;96563;-87
2024/01/27 21:02:52;;;;;;;6.63;1.50;;;4.90;95.20;;;3.23;78.57;101605.97;10501655;27;97422;-87
2024/01/27 21:07:57;;;;;;;5.83;1.43;;;4.90;95.40;;;3.23;78.80;101611.22;10506348;27;96532;-86
2024/01/27 21:13:00;;;;;;;6.00;1.53;;;4.90;95.40;;;3.22;78.73;101610.38;10530437;27;96505;-87
2024/01/27 21:18:05;;;;;;;5.43;1.40;;;4.90;95.60;;;3.20;79.31;101595.66;10503857;27;96519;-88